CMA CGM Aristote — MRPN4 — position and weather

sailwx.info

Track history (hours):
 
Tides and Currents Weather Stations Pressure Air Temp Water Temp Dewpoint Dewpoint Depression Visibility Wind Speed Wind Dir Waves Ship Positions

CMA CGM Aristote

Last reported at 2016-Jun-25 17:10 UTC. Time now 2016-Jun-25 17:56 UTC.
Position N 37°21' E 008°32'.

Length 170 m; draft 8.9 m.

Type: Ship (hazmat cat A). MMSI: 235054581.

Date/timePositionNaut miles runAvg speedWind from/ knotsBaromVisibWave heightAir tempDewpointWater temp
2016-Jun-25 17:10N 37°21' E 008°32'1118.7
2016-Jun-25 16:33N 37°20' E 008°18'9719.3
2016-Jun-25 11:31N 37°18' E 006°16'1818.9
2016-Jun-25 10:33N 37°17' E 005°53'1918.8
2016-Jun-25 09:31N 37°16' E 005°28'6219.2
2016-Jun-25 06:19N 37°14' E 004°11'1519.4
2016-Jun-25 05:33N 37°13' E 003°53'1919.3
2016-Jun-25 04:33N 37°12' E 003°29'1919.0
2016-Jun-25 03:33N 37°12' E 003°05'1918.8
2016-Jun-25 02:33N 37°10' E 002°41'1919.2
2016-Jun-25 01:33N 37°04' E 002°18'1919.5
2016-Jun-25 00:33N 37°01' E 001°54'2019.7
2016-Jun-24 23:33N 36°56' E 001°30'2019.6
2016-Jun-24 22:33N 36°51' E 001°07'1919.4
2016-Jun-24 21:33N 36°46' E 000°43'1818.4
2016-Jun-24 20:33N 36°41' E 000°21'1919.1
2016-Jun-24 19:33N 36°37' W 000°02'1919.3
2016-Jun-24 18:33N 36°32' W 000°25'2019.6
2016-Jun-24 17:33N 36°28' W 000°49'2019.6
2016-Jun-24 16:33N 36°23' W 001°13'2019.5
2016-Jun-24 15:33N 36°19' W 001°36'2219.4
2016-Jun-24 14:25N 36°13' W 002°03'15619.8
2016-Jun-24 06:33N 36°00' W 005°15'2612.6
2016-Jun-24 04:30N 35°54' W 005°46'7915.8
2016-Jun-23 23:29N 34°50' W 006°45'2118.6
2016-Jun-23 22:20N 34°31' W 006°57'1418.7
2016-Jun-23 21:33N 34°19' W 007°06'1818.3
2016-Jun-23 20:33N 34°04' W 007°19'1918.7
2016-Jun-23 19:33N 33°48' W 007°30'1212.2
2016-Jun-23 18:33N 33°37' W 007°36'0 0.4
2016-Jun-23 17:26N 33°36' W 007°36'0 0.0
2016-Jun-23 16:32N 33°36' W 007°36'  
2016-Jun-20 17:29N 33°36' W 007°36'0 0.1
2016-Jun-20 16:20N 33°36' W 007°36'0 0.0
2016-Jun-19 17:22N 33°37' W 007°36'6 7.2
2016-Jun-19 16:33N 33°42' W 007°34'1716.5
2016-Jun-19 15:33N 33°58' W 007°41'1919.7
2016-Jun-19 14:34N 34°15' W 007°50'2519.4
2016-Jun-19 13:17N 34°38' W 008°03'1418.8
2016-Jun-19 12:34N 34°50' W 008°10'3919.1
2016-Jun-19 10:32N 35°26' W 008°29'3819.0
2016-Jun-19 08:31N 36°01' W 008°48'1818.7
2016-Jun-19 07:32N 36°18' W 008°56'1716.8
2016-Jun-19 06:32N 36°31' W 009°09'3416.1
2016-Jun-19 04:25N 36°57' W 009°36'1617.2
2016-Jun-19 03:28N 37°13' W 009°41'1817.1
2016-Jun-19 02:26N 37°30' W 009°48'1517.3
2016-Jun-19 01:33N 37°45' W 009°51'1817.6
2016-Jun-19 00:33N 38°03' W 009°55'1817.6
2016-Jun-18 23:33N 38°20' W 009°59'1817.7
2016-Jun-18 22:33N 38°37' W 010°05'73417.9
2016-Jun-17 05:33N 49°52' W 003°22'1817.7
2016-Jun-17 04:33N 49°59' W 002°57'4317.4
2016-Jun-17 02:04N 49°58' W 001°50'1119.8
2016-Jun-17 01:32N 49°54' W 001°34'2020.9
2016-Jun-17 00:34N 49°48' W 001°04'2020.3
2016-Jun-16 23:33N 49°40' W 000°36'1918.7
2016-Jun-16 22:33N 49°33' W 000°09'1211.7
2016-Jun-16 21:33N 49°28' E 000°07'2 1.8
2016-Jun-16 20:33N 49°27' E 000°10'0 0.0
2016-Jun-16 19:31N 49°27' E 000°10'0 0.0
2016-Jun-16 18:31N 49°27' E 000°10'0 0.0
2016-Jun-16 17:31N 49°27' E 000°10'0 0.0
2016-Jun-16 16:31N 49°27' E 000°10'0 0.0
2016-Jun-16 15:31N 49°27' E 000°10'0 0.0
2016-Jun-16 14:31N 49°27' E 000°10'0 0.0
2016-Jun-16 13:31N 49°27' E 000°10'0 0.0
2016-Jun-16 12:31N 49°27' E 000°10'0 0.0
2016-Jun-16 11:31N 49°27' E 000°10'0 0.0
2016-Jun-16 10:31N 49°27' E 000°10'1 1.1
2016-Jun-16 09:34N 49°28' E 000°09'1010.4
2016-Jun-16 08:33N 49°32' W 000°06'9 8.7
2016-Jun-16 07:33N 49°40' W 000°06'7 7.3
2016-Jun-16 06:33N 49°48' W 000°05'8 8.1
2016-Jun-16 05:33N 49°56' W 000°05'8 8.4
2016-Jun-16 04:33N 50°04' W 000°04'10 9.6
2016-Jun-16 03:33N 50°14' W 000°06'1010.2
2016-Jun-16 02:33N 50°24' W 000°03'1212.1
2016-Jun-16 01:33N 50°31' E 000°12'1414.2
2016-Jun-16 00:33N 50°34' E 000°34'2913.1
2016-Jun-15 22:22N 50°50' E 001°12'911.4
2016-Jun-15 21:33N 50°57' E 001°22'1110.8
2016-Jun-15 20:34N 51°05' E 001°33'10 9.9
2016-Jun-15 19:33N 51°12' E 001°44'1111.3
2016-Jun-15 18:33N 51°21' E 001°56'9 9.3
2016-Jun-15 17:33N 51°22' E 002°11'  
Track history (hours):
 
Tides and Currents Weather Stations Pressure Air Temp Water Temp Dewpoint Dewpoint Depression Visibility Wind Speed Wind Dir Waves Ship Positions

CMA CGM Aristote

Last reported at 2016-Jun-25 17:10 UTC. Time now 2016-Jun-25 17:56 UTC.
Position N 37°21' E 008°32'.

Length 170 m; draft 8.9 m.

Type: Ship (hazmat cat A). MMSI: 235054581.

Date/timePositionNaut miles runAvg speedWind from/ knotsBaromVisibWave heightAir tempDewpointWater temp
2016-Jun-25 17:10N 37°21' E 008°32'1118.7
2016-Jun-25 16:33N 37°20' E 008°18'9719.3
2016-Jun-25 11:31N 37°18' E 006°16'1818.9
2016-Jun-25 10:33N 37°17' E 005°53'1918.8
2016-Jun-25 09:31N 37°16' E 005°28'6219.2
2016-Jun-25 06:19N 37°14' E 004°11'1519.4
2016-Jun-25 05:33N 37°13' E 003°53'1919.3
2016-Jun-25 04:33N 37°12' E 003°29'1919.0
2016-Jun-25 03:33N 37°12' E 003°05'1918.8
2016-Jun-25 02:33N 37°10' E 002°41'1919.2
2016-Jun-25 01:33N 37°04' E 002°18'1919.5
2016-Jun-25 00:33N 37°01' E 001°54'2019.7
2016-Jun-24 23:33N 36°56' E 001°30'2019.6
2016-Jun-24 22:33N 36°51' E 001°07'1919.4
2016-Jun-24 21:33N 36°46' E 000°43'1818.4
2016-Jun-24 20:33N 36°41' E 000°21'1919.1
2016-Jun-24 19:33N 36°37' W 000°02'1919.3
2016-Jun-24 18:33N 36°32' W 000°25'2019.6
2016-Jun-24 17:33N 36°28' W 000°49'2019.6
2016-Jun-24 16:33N 36°23' W 001°13'2019.5
2016-Jun-24 15:33N 36°19' W 001°36'2219.4
2016-Jun-24 14:25N 36°13' W 002°03'15619.8
2016-Jun-24 06:33N 36°00' W 005°15'2612.6
2016-Jun-24 04:30N 35°54' W 005°46'7915.8
2016-Jun-23 23:29N 34°50' W 006°45'2118.6
2016-Jun-23 22:20N 34°31' W 006°57'1418.7
2016-Jun-23 21:33N 34°19' W 007°06'1818.3
2016-Jun-23 20:33N 34°04' W 007°19'1918.7
2016-Jun-23 19:33N 33°48' W 007°30'1212.2
2016-Jun-23 18:33N 33°37' W 007°36'0 0.4
2016-Jun-23 17:26N 33°36' W 007°36'0 0.0
2016-Jun-23 16:32N 33°36' W 007°36'  
2016-Jun-20 17:29N 33°36' W 007°36'0 0.1
2016-Jun-20 16:20N 33°36' W 007°36'0 0.0
2016-Jun-19 17:22N 33°37' W 007°36'6 7.2
2016-Jun-19 16:33N 33°42' W 007°34'1716.5
2016-Jun-19 15:33N 33°58' W 007°41'1919.7
2016-Jun-19 14:34N 34°15' W 007°50'2519.4
2016-Jun-19 13:17N 34°38' W 008°03'1418.8
2016-Jun-19 12:34N 34°50' W 008°10'3919.1
2016-Jun-19 10:32N 35°26' W 008°29'3819.0
2016-Jun-19 08:31N 36°01' W 008°48'1818.7
2016-Jun-19 07:32N 36°18' W 008°56'1716.8
2016-Jun-19 06:32N 36°31' W 009°09'3416.1
2016-Jun-19 04:25N 36°57' W 009°36'1617.2
2016-Jun-19 03:28N 37°13' W 009°41'1817.1
2016-Jun-19 02:26N 37°30' W 009°48'1517.3
2016-Jun-19 01:33N 37°45' W 009°51'1817.6
2016-Jun-19 00:33N 38°03' W 009°55'1817.6
2016-Jun-18 23:33N 38°20' W 009°59'1817.7
2016-Jun-18 22:33N 38°37' W 010°05'73417.9
2016-Jun-17 05:33N 49°52' W 003°22'1817.7
2016-Jun-17 04:33N 49°59' W 002°57'4317.4
2016-Jun-17 02:04N 49°58' W 001°50'1119.8
2016-Jun-17 01:32N 49°54' W 001°34'2020.9
2016-Jun-17 00:34N 49°48' W 001°04'2020.3
2016-Jun-16 23:33N 49°40' W 000°36'1918.7
2016-Jun-16 22:33N 49°33' W 000°09'1211.7
2016-Jun-16 21:33N 49°28' E 000°07'2 1.8
2016-Jun-16 20:33N 49°27' E 000°10'0 0.0
2016-Jun-16 19:31N 49°27' E 000°10'0 0.0
2016-Jun-16 18:31N 49°27' E 000°10'0 0.0
2016-Jun-16 17:31N 49°27' E 000°10'0 0.0
2016-Jun-16 16:31N 49°27' E 000°10'0 0.0
2016-Jun-16 15:31N 49°27' E 000°10'0 0.0
2016-Jun-16 14:31N 49°27' E 000°10'0 0.0
2016-Jun-16 13:31N 49°27' E 000°10'0 0.0
2016-Jun-16 12:31N 49°27' E 000°10'0 0.0
2016-Jun-16 11:31N 49°27' E 000°10'0 0.0
2016-Jun-16 10:31N 49°27' E 000°10'1 1.1
2016-Jun-16 09:34N 49°28' E 000°09'1010.4
2016-Jun-16 08:33N 49°32' W 000°06'9 8.7
2016-Jun-16 07:33N 49°40' W 000°06'7 7.3
2016-Jun-16 06:33N 49°48' W 000°05'8 8.1
2016-Jun-16 05:33N 49°56' W 000°05'8 8.4
2016-Jun-16 04:33N 50°04' W 000°04'10 9.6
2016-Jun-16 03:33N 50°14' W 000°06'1010.2
2016-Jun-16 02:33N 50°24' W 000°03'1212.1
2016-Jun-16 01:33N 50°31' E 000°12'1414.2
2016-Jun-16 00:33N 50°34' E 000°34'2913.1
2016-Jun-15 22:22N 50°50' E 001°12'911.4
2016-Jun-15 21:33N 50°57' E 001°22'1110.8
2016-Jun-15 20:34N 51°05' E 001°33'10 9.9
2016-Jun-15 19:33N 51°12' E 001°44'1111.3
2016-Jun-15 18:33N 51°21' E 001°56'9 9.3
2016-Jun-15 17:33N 51°22' E 002°11'  

Dump ship's entire track history